Milagro, New Mexico
Current Conditions -  °F | °C
As of 4:53 AM on Friday 19 Dec 2014 (Local Time) from KCQC Reporting Station
Clear Clear  
Wind Chill: 10°   Ceiling: Unl
Heat Index: 24°   Visibility: 10mi
Dew Point: 21°   Wind: 20mph
Humidity: 88%   Direction: 300°WNW
Pressure: 30.05"   Gusts: NA
Location:  34.5735°N, 105.476°W
Report Text: KCQC 191153Z AUTO 30017KT 10SM CLR M04/M06 A3005 RMK AO2 SLP190 T10441061 11022 21044 51001
Loading
Personal Weather Stations






























Interactive Weather Map New forecast layout! Learn more

10-Day Weather Forecast

Advertisements
Track Severe Weather on mobile